Time;durP1;ratioP1;P1;durP2;ratioP2;P2;SDS_P1;SDS_P2;PMS_P1;PMS_P2;Temp;Humidity;BMP_temperature;BMP_pressure;BME280_temperature;BME280_humidity;BME280_pressure;Samples;Min_cycle;Max_cycle;Signal;HPM_P1;HPM_P2
2021/05/28 00:00:19;;;;;;;6.72;3.53;;;;;;;;;;5052953;28;20033;-73
2021/05/28 00:02:44;;;;;;;5.90;3.50;;;;;;;;;;5053648;28;20033;-73
2021/05/28 00:05:10;;;;;;;6.38;3.35;;;;;;;;;;5053931;28;20048;-73
2021/05/28 00:07:36;;;;;;;7.28;3.78;;;;;;;;;;5053750;28;20064;-73
2021/05/28 00:10:01;;;;;;;6.10;2.95;;;;;;;;;;5053074;28;20064;-73
2021/05/28 00:12:27;;;;;;;10.55;3.83;;;;;;;;;;5053537;28;20029;-72
2021/05/28 00:14:52;;;;;;;7.10;3.60;;;;;;;;;;5052655;28;20037;-72
2021/05/28 00:17:18;;;;;;;6.78;3.95;;;;;;;;;;5052370;28;20031;-73
2021/05/28 00:19:43;;;;;;;10.07;4.00;;;;;;;;;;5053822;28;20092;-73
2021/05/28 00:22:08;;;;;;;8.25;4.25;;;;;;;;;;5052684;28;20061;-73
2021/05/28 00:24:35;;;;;;;10.23;4.10;;;;;;;;;;5053508;28;20083;-73
2021/05/28 00:27:00;;;;;;;9.13;4.22;;;;;;;;;;5052179;28;20044;-72
2021/05/28 00:29:25;;;;;;;10.63;4.47;;;;;;;;;;5053506;28;20040;-72
2021/05/28 00:31:51;;;;;;;6.25;3.72;;;;;;;;;;5053425;28;20179;-72
2021/05/28 00:34:16;;;;;;;7.10;3.85;;;;;;;;;;5053318;28;20041;-72
2021/05/28 00:36:41;;;;;;;5.25;3.42;;;;;;;;;;5053070;28;20056;-73
2021/05/28 00:39:07;;;;;;;8.13;3.97;;;;;;;;;;5052105;28;20368;-73
2021/05/28 00:41:32;;;;;;;8.80;3.78;;;;;;;;;;5051072;28;20517;-72
2021/05/28 00:43:58;;;;;;;15.85;4.45;;;;;;;;;;5053314;28;20032;-72
2021/05/28 00:46:26;;;;;;;7.82;3.60;;;;;;;;;;5053299;28;20471;-72
2021/05/28 00:48:53;;;;;;;8.10;3.97;;;;;;;;;;5053420;28;20060;-72
2021/05/28 00:51:20;;;;;;;8.98;3.78;;;;;;;;;;5053104;28;20033;-73
2021/05/28 00:53:46;;;;;;;9.68;3.60;;;;;;;;;;5051777;28;20029;-72
2021/05/28 00:56:13;;;;;;;11.15;3.72;;;;;;;;;;5052937;28;20090;-72
2021/05/28 00:58:38;;;;;;;9.07;3.88;;;;;;;;;;5053164;28;20041;-72
2021/05/28 01:01:04;;;;;;;13.18;3.95;;;;;;;;;;5053007;28;20048;-72
2021/05/28 01:03:29;;;;;;;9.73;4.57;;;;;;;;;;5053030;28;20041;-72
2021/05/28 01:05:55;;;;;;;8.75;3.17;;;;;;;;;;5052235;28;20029;-72
2021/05/28 01:08:20;;;;;;;8.88;3.60;;;;;;;;;;5052859;28;20510;-72
2021/05/28 01:10:46;;;;;;;11.43;3.88;;;;;;;;;;5052247;28;20029;-73
2021/05/28 01:13:11;;;;;;;11.40;3.40;;;;;;;;;;5052806;28;20037;-72
2021/05/28 01:15:38;;;;;;;15.20;5.03;;;;;;;;;;5052903;28;20033;-72
2021/05/28 01:18:04;;;;;;;8.13;3.45;;;;;;;;;;5052805;28;20041;-72
2021/05/28 01:20:29;;;;;;;10.57;3.58;;;;;;;;;;5053042;28;20463;-72
2021/05/28 01:22:58;;;;;;;10.93;4.40;;;;;;;;;;5052675;28;20029;-72
2021/05/28 01:25:23;;;;;;;12.35;4.07;;;;;;;;;;5052431;28;20128;-72
2021/05/28 01:27:49;;;;;;;6.28;3.30;;;;;;;;;;5051715;28;20151;-72
2021/05/28 01:30:15;;;;;;;8.10;3.63;;;;;;;;;;5052582;28;20029;-72
2021/05/28 01:32:44;;;;;;;6.95;3.10;;;;;;;;;;5054238;28;20040;-72
2021/05/28 01:35:13;;;;;;;13.15;4.15;;;;;;;;;;5056810;28;20131;-72
2021/05/28 01:37:39;;;;;;;11.88;4.28;;;;;;;;;;5056381;28;20048;-72
2021/05/28 01:40:06;;;;;;;10.10;4.38;;;;;;;;;;5055608;28;20128;-72
2021/05/28 01:42:32;;;;;;;12.45;3.70;;;;;;;;;;5056381;28;20124;-72
2021/05/28 01:44:58;;;;;;;11.80;3.70;;;;;;;;;;5056178;28;20424;-72
2021/05/28 01:47:25;;;;;;;10.32;3.55;;;;;;;;;;5056472;28;20120;-72
2021/05/28 01:49:51;;;;;;;7.57;3.33;;;;;;;;;;5056465;28;20114;-72
2021/05/28 01:52:16;;;;;;;9.15;3.17;;;;;;;;;;5055232;28;20072;-72
2021/05/28 01:54:42;;;;;;;8.30;3.13;;;;;;;;;;5056129;28;20033;-72
2021/05/28 01:57:09;;;;;;;10.95;3.67;;;;;;;;;;5055110;28;20119;-72
2021/05/28 01:59:34;;;;;;;12.50;3.85;;;;;;;;;;5055205;28;20130;-72
2021/05/28 02:02:00;;;;;;;11.98;3.20;;;;;;;;;;5056154;28;20127;-72
2021/05/28 02:04:26;;;;;;;14.95;3.47;;;;;;;;;;5056167;28;20028;-72
2021/05/28 02:06:52;;;;;;;10.45;3.67;;;;;;;;;;5054985;28;20033;-72
2021/05/28 02:09:18;;;;;;;12.38;4.28;;;;;;;;;;5056762;28;20033;-72
2021/05/28 02:11:44;;;;;;;8.88;3.65;;;;;;;;;;5054596;28;20033;-72
2021/05/28 02:14:09;;;;;;;13.90;3.92;;;;;;;;;;5055915;28;20060;-72
2021/05/28 02:16:36;;;;;;;9.40;4.15;;;;;;;;;;5053915;28;20029;-73
2021/05/28 02:19:02;;;;;;;28.48;5.72;;;;;;;;;;5054805;28;20033;-73
2021/05/28 02:21:28;;;;;;;11.68;3.67;;;;;;;;;;5054749;28;20487;-73
2021/05/28 02:23:53;;;;;;;9.70;4.10;;;;;;;;;;5055781;28;20029;-73
2021/05/28 02:26:19;;;;;;;13.75;4.03;;;;;;;;;;5055617;28;20087;-73
2021/05/28 02:28:44;;;;;;;11.48;3.72;;;;;;;;;;5055629;28;20544;-74
2021/05/28 02:31:10;;;;;;;8.52;3.33;;;;;;;;;;5055440;28;20568;-74
2021/05/28 02:33:36;;;;;;;11.77;5.63;;;;;;;;;;5054390;28;20072;-74
2021/05/28 02:36:03;;;;;;;9.05;3.35;;;;;;;;;;5054499;28;20033;-73
2021/05/28 02:38:28;;;;;;;7.13;3.30;;;;;;;;;;5055485;28;20033;-73
2021/05/28 02:40:54;;;;;;;10.23;3.55;;;;;;;;;;5055265;28;20047;-74
2021/05/28 02:43:19;;;;;;;6.82;3.20;;;;;;;;;;5054120;28;20033;-73
2021/05/28 02:45:44;;;;;;;8.77;3.60;;;;;;;;;;5054704;28;20037;-74
2021/05/28 02:48:10;;;;;;;5.72;3.55;;;;;;;;;;5055108;28;20044;-73
2021/05/28 02:50:35;;;;;;;12.13;3.72;;;;;;;;;;5055556;28;20043;-74
2021/05/28 02:53:01;;;;;;;10.80;3.67;;;;;;;;;;5055300;28;20095;-75
2021/05/28 02:55:28;;;;;;;8.60;3.70;;;;;;;;;;5055555;28;20035;-76
2021/05/28 02:57:54;;;;;;;10.98;3.58;;;;;;;;;;5053672;28;20052;-76
2021/05/28 03:00:21;;;;;;;12.10;3.78;;;;;;;;;;5055042;28;20041;-75
2021/05/28 03:02:46;;;;;;;11.75;3.92;;;;;;;;;;5054969;28;20036;-74
2021/05/28 03:05:12;;;;;;;8.27;4.18;;;;;;;;;;5055116;28;20115;-74
2021/05/28 03:07:38;;;;;;;10.50;3.92;;;;;;;;;;5053953;28;20033;-73
2021/05/28 03:10:04;;;;;;;7.45;3.47;;;;;;;;;;5054565;28;20458;-72
2021/05/28 03:12:29;;;;;;;9.77;4.25;;;;;;;;;;5054909;28;20037;-73
2021/05/28 03:14:55;;;;;;;13.18;4.03;;;;;;;;;;5053743;28;20106;-73
2021/05/28 03:17:20;;;;;;;13.98;4.43;;;;;;;;;;5054580;28;20040;-72
2021/05/28 03:19:47;;;;;;;8.82;3.88;;;;;;;;;;5055031;28;20040;-73
2021/05/28 03:24:44;;;;;;;14.15;4.22;;;;;;;;;;5054657;28;20074;-72
2021/05/28 03:27:10;;;;;;;12.73;4.28;;;;;;;;;;5054599;28;20025;-72
2021/05/28 03:29:36;;;;;;;14.68;5.50;;;;;;;;;;5054776;28;20048;-73
2021/05/28 03:32:02;;;;;;;16.35;4.47;;;;;;;;;;5054397;28;20037;-72
2021/05/28 03:34:27;;;;;;;11.73;4.13;;;;;;;;;;5054798;28;20048;-72
2021/05/28 03:36:53;;;;;;;10.43;3.90;;;;;;;;;;5053175;28;20509;-72
2021/05/28 03:39:18;;;;;;;12.10;4.47;;;;;;;;;;5054390;28;20459;-73
2021/05/28 03:41:43;;;;;;;12.80;4.20;;;;;;;;;;5054022;28;20067;-73
2021/05/28 03:44:09;;;;;;;16.88;4.85;;;;;;;;;;5054319;28;20491;-73
2021/05/28 03:46:34;;;;;;;17.58;4.30;;;;;;;;;;5053490;28;20372;-72
2021/05/28 03:49:00;;;;;;;22.48;4.32;;;;;;;;;;5054011;28;20087;-72
2021/05/28 03:51:25;;;;;;;16.27;4.65;;;;;;;;;;5053797;28;20033;-73
2021/05/28 03:53:51;;;;;;;11.82;4.65;;;;;;;;;;5054152;28;20395;-73
2021/05/28 03:56:16;;;;;;;11.05;3.85;;;;;;;;;;5053972;28;20033;-73
2021/05/28 03:58:42;;;;;;;15.43;4.18;;;;;;;;;;5053643;28;20059;-72
2021/05/28 04:01:08;;;;;;;10.88;4.88;;;;;;;;;;5053728;28;20041;-73
2021/05/28 04:03:34;;;;;;;14.60;4.30;;;;;;;;;;5052408;28;20040;-73
2021/05/28 04:05:59;;;;;;;14.45;4.72;;;;;;;;;;5052960;28;20418;-73
2021/05/28 04:08:24;;;;;;;8.40;4.22;;;;;;;;;;5053892;28;20040;-74
2021/05/28 04:10:50;;;;;;;10.77;4.25;;;;;;;;;;5053690;28;20048;-73
2021/05/28 04:13:15;;;;;;;20.95;4.40;;;;;;;;;;5053675;28;20036;-73
2021/05/28 04:15:41;;;;;;;19.65;4.82;;;;;;;;;;5053676;28;20040;-74
2021/05/28 04:18:06;;;;;;;12.10;4.00;;;;;;;;;;5053319;28;20407;-75
2021/05/28 04:20:32;;;;;;;14.75;4.50;;;;;;;;;;5053933;28;20108;-75
2021/05/28 04:22:58;;;;;;;16.60;5.28;;;;;;;;;;5052597;28;20036;-74
2021/05/28 04:25:24;;;;;;;9.73;4.13;;;;;;;;;;5053490;28;20025;-75
2021/05/28 04:27:49;;;;;;;11.52;4.40;;;;;;;;;;5053196;28;20112;-75
2021/05/28 04:30:16;;;;;;;12.38;4.38;;;;;;;;;;5053590;28;20040;-75
2021/05/28 04:32:42;;;;;;;10.85;3.95;;;;;;;;;;5053372;28;20112;-73
2021/05/28 04:35:07;;;;;;;12.52;4.82;;;;;;;;;;5053393;28;20104;-73
2021/05/28 04:37:33;;;;;;;12.95;4.10;;;;;;;;;;5052317;28;20467;-73
2021/05/28 04:39:58;;;;;;;8.77;3.85;;;;;;;;;;5053399;28;20098;-73
2021/05/28 04:42:24;;;;;;;8.65;3.83;;;;;;;;;;5051874;28;20057;-73
2021/05/28 04:44:49;;;;;;;7.85;3.85;;;;;;;;;;5053257;28;20051;-73
2021/05/28 04:47:15;;;;;;;10.70;4.15;;;;;;;;;;5053326;28;20041;-73
2021/05/28 04:49:40;;;;;;;10.93;4.93;;;;;;;;;;5053088;28;20052;-73
2021/05/28 04:52:06;;;;;;;9.63;4.53;;;;;;;;;;5053235;28;20056;-74
2021/05/28 04:54:32;;;;;;;9.30;4.25;;;;;;;;;;5052875;28;20025;-73
2021/05/28 04:56:57;;;;;;;7.50;3.63;;;;;;;;;;5052843;28;20414;-73
2021/05/28 04:59:23;;;;;;;12.98;4.63;;;;;;;;;;5052978;28;20040;-73
2021/05/28 05:01:48;;;;;;;8.80;3.78;;;;;;;;;;5053137;28;20029;-73
2021/05/28 05:04:14;;;;;;;12.93;4.18;;;;;;;;;;5053101;28;20037;-73
2021/05/28 05:06:39;;;;;;;12.38;4.50;;;;;;;;;;5051293;28;20039;-73
2021/05/28 05:09:05;;;;;;;14.35;4.20;;;;;;;;;;5052937;28;20040;-73
2021/05/28 05:11:30;;;;;;;9.77;3.90;;;;;;;;;;5053135;28;20041;-73
2021/05/28 05:13:55;;;;;;;14.10;3.40;;;;;;;;;;5050613;28;20386;-74
2021/05/28 05:16:21;;;;;;;11.15;3.80;;;;;;;;;;5052951;28;20414;-74
2021/05/28 05:18:47;;;;;;;10.30;4.28;;;;;;;;;;5053088;28;20076;-75
2021/05/28 05:21:12;;;;;;;8.75;3.60;;;;;;;;;;5052682;28;20382;-74
2021/05/28 05:23:39;;;;;;;12.15;3.60;;;;;;;;;;5052738;28;20120;-74
2021/05/28 05:26:04;;;;;;;9.98;3.72;;;;;;;;;;5051488;28;20072;-74
2021/05/28 05:28:30;;;;;;;9.27;3.30;;;;;;;;;;5051627;28;20118;-74
2021/05/28 05:30:55;;;;;;;7.45;3.00;;;;;;;;;;5051374;28;20037;-74
2021/05/28 05:33:21;;;;;;;10.60;3.97;;;;;;;;;;5052813;28;20094;-74
2021/05/28 05:35:46;;;;;;;10.23;3.30;;;;;;;;;;5052906;28;20043;-75
2021/05/28 05:38:12;;;;;;;11.00;3.45;;;;;;;;;;5052727;28;20047;-75
2021/05/28 05:40:38;;;;;;;12.57;3.70;;;;;;;;;;5051570;28;20120;-75
2021/05/28 05:43:04;;;;;;;9.18;3.50;;;;;;;;;;5052277;28;20479;-73
2021/05/28 05:45:29;;;;;;;6.35;3.15;;;;;;;;;;5052889;28;20098;-75
2021/05/28 05:47:55;;;;;;;29.98;4.57;;;;;;;;;;5051956;28;20033;-72
2021/05/28 05:50:20;;;;;;;8.57;3.40;;;;;;;;;;5051566;28;20029;-74
2021/05/28 05:52:46;;;;;;;8.77;3.15;;;;;;;;;;5052542;28;20480;-74
2021/05/28 05:55:12;;;;;;;11.52;3.55;;;;;;;;;;5052267;28;20021;-73
2021/05/28 05:57:38;;;;;;;9.55;3.30;;;;;;;;;;5052395;28;20037;-73
2021/05/28 06:00:05;;;;;;;9.88;2.70;;;;;;;;;;5052415;28;20047;-73
2021/05/28 06:02:32;;;;;;;7.05;3.10;;;;;;;;;;5052683;28;20044;-74
2021/05/28 06:04:57;;;;;;;10.88;3.15;;;;;;;;;;5052443;28;20032;-74
2021/05/28 06:07:23;;;;;;;12.18;3.25;;;;;;;;;;5051549;28;20371;-74
2021/05/28 06:09:48;;;;;;;7.65;2.95;;;;;;;;;;5051986;28;20462;-74
2021/05/28 06:12:14;;;;;;;9.00;3.25;;;;;;;;;;5050914;28;20040;-76
2021/05/28 06:14:39;;;;;;;10.25;2.72;;;;;;;;;;5050921;28;20033;-74
2021/05/28 06:17:04;;;;;;;9.18;2.67;;;;;;;;;;5051195;28;20113;-74
2021/05/28 06:19:30;;;;;;;10.35;3.65;;;;;;;;;;5053480;28;20436;-72
2021/05/28 06:21:56;;;;;;;12.35;3.35;;;;;;;;;;5055958;28;20110;-72
2021/05/28 06:24:22;;;;;;;10.23;3.05;;;;;;;;;;5055743;28;20037;-75
2021/05/28 06:26:47;;;;;;;5.85;2.40;;;;;;;;;;5055784;28;20544;-76
2021/05/28 06:29:12;;;;;;;6.68;2.15;;;;;;;;;;5057064;28;20033;-76
2021/05/28 06:31:38;;;;;;;7.55;2.53;;;;;;;;;;5057860;28;20036;-76
2021/05/28 06:34:04;;;;;;;6.22;2.00;;;;;;;;;;5058407;28;20445;-76
2021/05/28 06:36:29;;;;;;;6.00;2.72;;;;;;;;;;5054487;28;20029;-77
2021/05/28 06:38:56;;;;;;;8.93;2.05;;;;;;;;;;5054598;28;20098;-77
2021/05/28 06:41:22;;;;;;;7.50;2.97;;;;;;;;;;5054536;28;20402;-77
2021/05/28 06:43:48;;;;;;;9.82;2.42;;;;;;;;;;5059679;28;20036;-75
2021/05/28 06:46:13;;;;;;;5.05;1.80;;;;;;;;;;5055647;28;20420;-75
2021/05/28 06:48:38;;;;;;;4.88;2.00;;;;;;;;;;5054510;28;20116;-75
2021/05/28 06:51:04;;;;;;;6.15;2.10;;;;;;;;;;5055155;28;20037;-74
2021/05/28 06:53:30;;;;;;;7.90;2.20;;;;;;;;;;5055182;28;20056;-74
2021/05/28 06:55:56;;;;;;;8.07;3.22;;;;;;;;;;5055299;28;20052;-74
2021/05/28 06:58:21;;;;;;;6.32;2.42;;;;;;;;;;5055304;28;20033;-73
2021/05/28 07:00:47;;;;;;;4.53;2.10;;;;;;;;;;5055116;28;20052;-74
2021/05/28 07:03:13;;;;;;;5.20;2.00;;;;;;;;;;5055248;28;20104;-72
2021/05/28 07:05:39;;;;;;;5.10;2.08;;;;;;;;;;5054775;28;20474;-72
2021/05/28 07:08:04;;;;;;;9.10;2.45;;;;;;;;;;5054864;28;20035;-73
2021/05/28 07:10:30;;;;;;;5.60;2.53;;;;;;;;;;5054536;28;20453;-73
2021/05/28 07:12:55;;;;;;;6.57;3.00;;;;;;;;;;5053673;28;20129;-73
2021/05/28 07:15:21;;;;;;;5.53;2.10;;;;;;;;;;5054192;28;20025;-73
2021/05/28 07:17:47;;;;;;;8.52;2.30;;;;;;;;;;5054686;28;20449;-73
2021/05/28 07:20:13;;;;;;;11.02;2.50;;;;;;;;;;5054894;28;20051;-74
2021/05/28 07:22:38;;;;;;;8.57;2.75;;;;;;;;;;5054105;28;20486;-75
2021/05/28 07:25:04;;;;;;;5.20;2.42;;;;;;;;;;5054567;28;20120;-76
2021/05/28 07:27:30;;;;;;;9.15;2.65;;;;;;;;;;5053566;28;20033;-74
2021/05/28 07:29:55;;;;;;;7.95;2.60;;;;;;;;;;5054404;28;20106;-75
2021/05/28 07:32:21;;;;;;;9.00;2.40;;;;;;;;;;5054317;28;20037;-75
2021/05/28 07:34:46;;;;;;;10.20;2.65;;;;;;;;;;5054620;28;20094;-74
2021/05/28 07:37:12;;;;;;;6.53;2.47;;;;;;;;;;5053506;28;20037;-75
2021/05/28 07:39:37;;;;;;;7.95;2.70;;;;;;;;;;5052789;28;20037;-75
2021/05/28 07:42:04;;;;;;;8.23;2.33;;;;;;;;;;5054061;28;20053;-75
2021/05/28 07:44:30;;;;;;;7.43;2.55;;;;;;;;;;5054379;28;20044;-75
2021/05/28 07:46:56;;;;;;;5.78;2.47;;;;;;;;;;5053001;28;20037;-75
2021/05/28 07:49:22;;;;;;;11.70;2.20;;;;;;;;;;5054117;28;20463;-75
2021/05/28 07:51:47;;;;;;;11.10;2.72;;;;;;;;;;5054246;28;20459;-74
2021/05/28 07:54:13;;;;;;;4.70;2.22;;;;;;;;;;5053840;28;20044;-75
2021/05/28 07:56:38;;;;;;;5.93;3.70;;;;;;;;;;5053922;28;20044;-76
2021/05/28 07:59:04;;;;;;;4.57;2.17;;;;;;;;;;5054039;28;20072;-76
2021/05/28 08:01:31;;;;;;;7.00;2.83;;;;;;;;;;5053536;28;20123;-77
2021/05/28 08:03:57;;;;;;;4.85;2.25;;;;;;;;;;5053839;28;20033;-75
2021/05/28 08:06:23;;;;;;;12.23;2.33;;;;;;;;;;5054021;28;20410;-77
2021/05/28 08:08:49;;;;;;;3.83;2.00;;;;;;;;;;5052943;28;20034;-76
2021/05/28 08:11:15;;;;;;;7.85;2.30;;;;;;;;;;5053715;28;20037;-75
2021/05/28 08:13:40;;;;;;;4.78;1.90;;;;;;;;;;5053917;28;20497;-75
2021/05/28 08:16:07;;;;;;;6.00;2.20;;;;;;;;;;5053914;28;20474;-75
2021/05/28 08:18:32;;;;;;;6.30;2.10;;;;;;;;;;5052852;28;20044;-76
2021/05/28 08:20:58;;;;;;;6.90;2.25;;;;;;;;;;5052501;28;20032;-75
2021/05/28 08:23:24;;;;;;;5.90;2.30;;;;;;;;;;5053177;28;20466;-76
2021/05/28 08:25:50;;;;;;;5.00;2.80;;;;;;;;;;5052809;28;20028;-75
2021/05/28 08:28:17;;;;;;;7.22;2.22;;;;;;;;;;5053329;28;20033;-75
2021/05/28 08:30:42;;;;;;;6.88;2.03;;;;;;;;;;5053582;28;20479;-75
2021/05/28 08:33:11;;;;;;;7.40;2.22;;;;;;;;;;5053527;28;20083;-75
2021/05/28 08:35:37;;;;;;;8.52;2.72;;;;;;;;;;5053490;28;20036;-75
2021/05/28 08:38:03;;;;;;;6.82;2.45;;;;;;;;;;5052366;28;20075;-75
2021/05/28 08:40:32;;;;;;;7.53;2.25;;;;;;;;;;5053029;28;20028;-75
2021/05/28 08:43:00;;;;;;;4.53;2.20;;;;;;;;;;5051338;28;20095;-76
2021/05/28 08:45:47;;;;;;;4.95;1.58;;;;;;;;;;5050979;28;20552;-76
2021/05/28 08:48:15;;;;;;;7.28;2.10;;;;;;;;;;5052207;28;20390;-76
2021/05/28 08:50:41;;;;;;;7.50;2.00;;;;;;;;;;5052118;28;20037;-76
2021/05/28 08:53:09;;;;;;;9.15;2.10;;;;;;;;;;5053254;28;20033;-76
2021/05/28 08:55:36;;;;;;;7.40;2.40;;;;;;;;;;5052042;28;20075;-76
2021/05/28 08:58:09;;;;;;;10.70;1.83;;;;;;;;;;5051974;28;20040;-76
2021/05/28 09:00:35;;;;;;;4.50;1.88;;;;;;;;;;5050663;28;20088;-76
2021/05/28 09:03:21;;;;;;;8.25;2.25;;;;;;;;;;5052972;28;20057;-76
2021/05/28 09:05:47;;;;;;;5.05;2.08;;;;;;;;;;5051846;28;20140;-76
2021/05/28 09:08:13;;;;;;;5.38;1.80;;;;;;;;;;5052328;28;20037;-76
2021/05/28 09:10:40;;;;;;;6.45;2.20;;;;;;;;;;5053001;28;20039;-76
2021/05/28 09:13:14;;;;;;;4.07;1.67;;;;;;;;;;5053096;28;20040;-76
2021/05/28 09:16:02;;;;;;;2.25;1.58;;;;;;;;;;5052526;28;20029;-76
2021/05/28 09:18:39;;;;;;;4.38;1.65;;;;;;;;;;5053093;28;20025;-76
2021/05/28 09:21:04;;;;;;;6.18;1.85;;;;;;;;;;5051902;28;20039;-76
2021/05/28 09:23:33;;;;;;;3.85;1.70;;;;;;;;;;5052854;28;20041;-75
2021/05/28 09:26:03;;;;;;;3.47;1.60;;;;;;;;;;5051785;28;20041;-76
2021/05/28 09:28:38;;;;;;;3.22;1.58;;;;;;;;;;5052834;28;20091;-76
2021/05/28 09:31:07;;;;;;;3.40;1.88;;;;;;;;;;5052032;28;20115;-76
2021/05/28 09:33:39;;;;;;;4.00;1.58;;;;;;;;;;5052563;28;20032;-76
2021/05/28 09:36:09;;;;;;;6.68;1.38;;;;;;;;;;5050912;28;20115;-76
2021/05/28 09:38:35;;;;;;;3.80;1.45;;;;;;;;;;5052302;28;20057;-76
2021/05/28 09:41:01;;;;;;;3.70;1.65;;;;;;;;;;5052650;28;20039;-76
2021/05/28 09:43:27;;;;;;;6.80;1.55;;;;;;;;;;5051445;28;20491;-75
2021/05/28 09:45:52;;;;;;;2.30;1.40;;;;;;;;;;5051758;28;20040;-76
2021/05/28 09:48:27;;;;;;;4.28;1.52;;;;;;;;;;5051471;28;20033;-76
2021/05/28 09:51:04;;;;;;;1.15;0.88;;;;;;;;;;5051712;28;20036;-77
2021/05/28 09:53:42;;;;;;;3.75;1.38;;;;;;;;;;5052757;28;20043;-76
2021/05/28 09:56:31;;;;;;;3.35;1.60;;;;;;;;;;5056428;28;20402;-77
2021/05/28 09:59:04;;;;;;;4.80;1.80;;;;;;;;;;5054089;28;20123;-76
2021/05/28 10:01:30;;;;;;;4.68;1.50;;;;;;;;;;5055031;28;20048;-74
2021/05/28 10:03:59;;;;;;;2.70;1.38;;;;;;;;;;5056010;28;20037;-75
2021/05/28 10:06:28;;;;;;;4.28;1.92;;;;;;;;;;5058970;28;20045;-83
2021/05/28 10:08:57;;;;;;;2.17;1.30;;;;;;;;;;5063715;28;20107;-80
2021/05/28 10:11:22;;;;;;;4.03;1.65;;;;;;;;;;5079515;28;20037;-78
2021/05/28 10:13:48;;;;;;;5.30;1.88;;;;;;;;;;5076057;28;20033;-76
2021/05/28 10:16:13;;;;;;;2.63;1.15;;;;;;;;;;5077411;28;20036;-75
2021/05/28 10:18:39;;;;;;;3.42;1.35;;;;;;;;;;5077852;28;20036;-79
2021/05/28 10:21:05;;;;;;;6.43;1.42;;;;;;;;;;5075654;28;20128;-79
2021/05/28 10:23:31;;;;;;;1.75;1.08;;;;;;;;;;5076385;28;20398;-76
2021/05/28 10:25:58;;;;;;;3.80;1.17;;;;;;;;;;5075866;28;20040;-76
2021/05/28 10:28:29;;;;;;;2.05;0.95;;;;;;;;;;5075861;28;20036;-77
2021/05/28 10:30:55;;;;;;;3.80;1.33;;;;;;;;;;5078920;28;20043;-81
2021/05/28 10:33:27;;;;;;;4.53;0.85;;;;;;;;;;5076135;28;20048;-76
2021/05/28 10:35:57;;;;;;;1.98;0.90;;;;;;;;;;5076079;28;20040;-76
2021/05/28 10:38:29;;;;;;;2.35;1.10;;;;;;;;;;5086753;28;20090;-78
2021/05/28 10:41:04;;;;;;;3.00;1.20;;;;;;;;;;5068740;28;20037;-78
2021/05/28 10:43:35;;;;;;;3.10;1.20;;;;;;;;;;5067416;28;20055;-78
2021/05/28 10:46:09;;;;;;;2.92;1.30;;;;;;;;;;5069426;28;20076;-78
2021/05/28 10:48:38;;;;;;;5.30;2.03;;;;;;;;;;5064195;28;20037;-77
2021/05/28 10:51:17;;;;;;;8.88;2.40;;;;;;;;;;5049843;28;20304;-78
2021/05/28 10:53:55;;;;;;;1.42;0.77;;;;;;;;;;5048651;28;20040;-78
2021/05/28 10:56:28;;;;;;;1.45;0.82;;;;;;;;;;5043846;28;20036;-80
2021/05/28 10:58:55;;;;;;;5.20;1.67;;;;;;;;;;5056071;28;20036;-78
2021/05/28 11:01:35;;;;;;;3.72;1.48;;;;;;;;;;5056998;28;20393;-76
2021/05/28 11:04:11;;;;;;;5.07;1.85;;;;;;;;;;5058919;28;20032;-77
2021/05/28 11:07:04;;;;;;;5.32;0.98;;;;;;;;;;5056836;28;20029;-78
2021/05/28 11:09:42;;;;;;;2.92;1.10;;;;;;;;;;5060345;28;20035;-78
2021/05/28 11:12:10;;;;;;;2.67;0.88;;;;;;;;;;5058568;28;20036;-78
2021/05/28 11:14:39;;;;;;;1.02;0.70;;;;;;;;;;5058502;28;20025;-78
2021/05/28 11:17:04;;;;;;;12.70;2.78;;;;;;;;;;5060583;28;20033;-78
2021/05/28 11:19:33;;;;;;;6.75;1.90;;;;;;;;;;5059501;28;20051;-78
2021/05/28 11:22:00;;;;;;;5.28;1.38;;;;;;;;;;5058495;28;20037;-78
2021/05/28 11:24:52;;;;;;;5.75;1.27;;;;;;;;;;5058895;28;20056;-78
2021/05/28 11:27:20;;;;;;;6.38;2.08;;;;;;;;;;5058821;28;20048;-79
2021/05/28 11:29:51;;;;;;;3.95;1.05;;;;;;;;;;5058723;28;20494;-79
2021/05/28 11:32:28;;;;;;;4.35;1.35;;;;;;;;;;5060462;28;20078;-78
2021/05/28 11:35:16;;;;;;;6.18;2.33;;;;;;;;;;5060351;28;20048;-78
2021/05/28 11:37:52;;;;;;;3.70;1.40;;;;;;;;;;5060323;28;20049;-78
2021/05/28 11:40:24;;;;;;;1.70;1.00;;;;;;;;;;5060099;28;20029;-78
2021/05/28 11:42:51;;;;;;;3.45;0.90;;;;;;;;;;5059689;28;20037;-78
2021/05/28 11:45:20;;;;;;;5.15;1.02;;;;;;;;;;5058574;28;20091;-78
2021/05/28 11:47:46;;;;;;;3.78;1.23;;;;;;;;;;5058849;28;20033;-79
2021/05/28 11:50:11;;;;;;;1.40;1.00;;;;;;;;;;5060221;28;20090;-78
2021/05/28 11:52:37;;;;;;;2.78;0.90;;;;;;;;;;5060202;28;20044;-79
2021/05/28 11:55:11;;;;;;;1.85;1.00;;;;;;;;;;5058626;28;20522;-78
2021/05/28 11:57:38;;;;;;;1.90;1.08;;;;;;;;;;5059465;28;20123;-78
2021/05/28 12:00:07;;;;;;;2.42;0.90;;;;;;;;;;5059730;28;20033;-78
2021/05/28 12:02:47;;;;;;;2.47;1.13;;;;;;;;;;5058422;28;20698;-79
2021/05/28 12:05:24;;;;;;;2.40;1.02;;;;;;;;;;5059099;28;20037;-78
2021/05/28 12:07:51;;;;;;;1.40;0.85;;;;;;;;;;5058159;28;20037;-77
2021/05/28 12:10:17;;;;;;;5.40;1.70;;;;;;;;;;5055328;28;20037;-76
2021/05/28 12:12:49;;;;;;;1.75;0.98;;;;;;;;;;5053920;28;20031;-77
2021/05/28 12:15:16;;;;;;;6.38;1.10;;;;;;;;;;5048781;28;20033;-76
2021/05/28 12:17:41;;;;;;;7.10;1.15;;;;;;;;;;5052812;28;20037;-78
2021/05/28 12:20:19;;;;;;;6.00;1.88;;;;;;;;;;5056654;28;20399;-78
2021/05/28 12:23:04;;;;;;;2.38;1.00;;;;;;;;;;5054600;28;20037;-77
2021/05/28 12:25:36;;;;;;;2.33;0.95;;;;;;;;;;5054063;28;20033;-77
2021/05/28 12:28:20;;;;;;;4.60;1.00;;;;;;;;;;5055061;28;20036;-77
2021/05/28 12:30:49;;;;;;;3.88;0.90;;;;;;;;;;5053818;28;20091;-77
2021/05/28 12:33:16;;;;;;;7.00;0.88;;;;;;;;;;5053371;28;20021;-79
2021/05/28 12:35:47;;;;;;;8.75;1.38;;;;;;;;;;5056619;28;20129;-79
2021/05/28 12:38:13;;;;;;;1.48;1.08;;;;;;;;;;5058909;28;20060;-80
2021/05/28 12:40:43;;;;;;;2.53;0.95;;;;;;;;;;5057341;28;20048;-78
2021/05/28 12:43:10;;;;;;;1.33;0.90;;;;;;;;;;5057269;28;20494;-77
2021/05/28 12:45:41;;;;;;;2.78;1.30;;;;;;;;;;5052959;28;20045;-77
2021/05/28 12:48:10;;;;;;;2.55;1.38;;;;;;;;;;5053514;28;20057;-78
2021/05/28 12:50:38;;;;;;;1.20;1.02;;;;;;;;;;5053478;28;20056;-77
2021/05/28 12:53:09;;;;;;;2.45;1.20;;;;;;;;;;5053622;28;20389;-76
2021/05/28 12:55:36;;;;;;;3.88;0.98;;;;;;;;;;5053108;28;20045;-76
2021/05/28 12:58:01;;;;;;;1.88;1.20;;;;;;;;;;5049182;28;20079;-76
2021/05/28 13:00:36;;;;;;;2.53;1.15;;;;;;;;;;5043502;28;20037;-79
2021/05/28 13:03:02;;;;;;;2.35;1.13;;;;;;;;;;5044996;28;20083;-78
2021/05/28 13:05:36;;;;;;;2.78;1.10;;;;;;;;;;5025644;28;20047;-77
2021/05/28 13:08:05;;;;;;;10.40;3.33;;;;;;;;;;5038350;28;20176;-76
2021/05/28 13:10:30;;;;;;;11.30;2.53;;;;;;;;;;5041423;28;20487;-75
2021/05/28 13:13:24;;;;;;;8.00;2.72;;;;;;;;;;5041040;28;20060;-77
2021/05/28 13:15:50;;;;;;;3.25;1.50;;;;;;;;;;5033046;28;20469;-76
2021/05/28 13:18:16;;;;;;;12.30;2.35;;;;;;;;;;5032918;28;20055;-77
2021/05/28 13:20:44;;;;;;;4.75;1.30;;;;;;;;;;5032020;28;20084;-77
2021/05/28 13:23:22;;;;;;;2.47;1.90;;;;;;;;;;5037535;28;20037;-78
2021/05/28 13:25:48;;;;;;;2.42;1.67;;;;;;;;;;5051866;28;20445;-76
2021/05/28 13:28:20;;;;;;;1.98;1.10;;;;;;;;;;5053827;28;20122;-77
2021/05/28 13:30:49;;;;;;;1.55;1.33;;;;;;;;;;5057952;28;20051;-77
2021/05/28 13:33:22;;;;;;;3.75;1.55;;;;;;;;;;5057742;28;20041;-77
2021/05/28 13:35:50;;;;;;;4.00;1.70;;;;;;;;;;5057074;28;20040;-75
2021/05/28 13:38:16;;;;;;;2.58;1.70;;;;;;;;;;5056307;28;20087;-76
2021/05/28 13:40:43;;;;;;;3.88;1.70;;;;;;;;;;5055745;28;20086;-76
2021/05/28 13:43:08;;;;;;;2.13;1.60;;;;;;;;;;5056619;28;20049;-76
2021/05/28 13:45:34;;;;;;;5.93;1.52;;;;;;;;;;5056674;28;20071;-76
2021/05/28 13:48:00;;;;;;;6.38;1.67;;;;;;;;;;5056661;28;20033;-75
2021/05/28 13:50:34;;;;;;;2.42;1.58;;;;;;;;;;5056626;28;20120;-77
2021/05/28 13:53:00;;;;;;;4.22;1.70;;;;;;;;;;5056682;28;20068;-76
2021/05/28 13:55:25;;;;;;;3.05;1.60;;;;;;;;;;5054926;28;20071;-77
2021/05/28 13:57:51;;;;;;;2.90;1.60;;;;;;;;;;5056433;28;20432;-76
2021/05/28 14:00:17;;;;;;;2.15;1.13;;;;;;;;;;5056254;28;20037;-76
2021/05/28 14:02:42;;;;;;;5.63;3.05;;;;;;;;;;5056410;28;20502;-76
2021/05/28 14:05:10;;;;;;;4.55;1.60;;;;;;;;;;5056128;28;20159;-76
2021/05/28 14:07:36;;;;;;;2.78;1.60;;;;;;;;;;5056174;28;20040;-76
2021/05/28 14:10:03;;;;;;;2.50;1.38;;;;;;;;;;5055915;28;20025;-75
2021/05/28 14:12:30;;;;;;;1.60;1.35;;;;;;;;;;5055199;28;20122;-76
2021/05/28 14:14:55;;;;;;;7.93;1.98;;;;;;;;;;5057589;28;20045;-77
2021/05/28 14:17:20;;;;;;;5.38;1.23;;;;;;;;;;5056113;28;20045;-75
2021/05/28 14:19:46;;;;;;;3.35;1.85;;;;;;;;;;5055748;28;20072;-75
2021/05/28 14:22:12;;;;;;;2.50;1.45;;;;;;;;;;5055871;28;20036;-75
2021/05/28 14:24:37;;;;;;;3.47;1.27;;;;;;;;;;5056098;28;20075;-75
2021/05/28 14:27:03;;;;;;;2.17;1.27;;;;;;;;;;5053878;28;20475;-75
2021/05/28 14:29:29;;;;;;;1.98;1.02;;;;;;;;;;5055862;28;20528;-76
2021/05/28 14:31:54;;;;;;;2.50;1.10;;;;;;;;;;5055933;28;20059;-75
2021/05/28 14:34:20;;;;;;;1.35;1.15;;;;;;;;;;5055477;28;20247;-74
2021/05/28 14:36:45;;;;;;;2.97;1.63;;;;;;;;;;5055819;28;20040;-77
2021/05/28 14:39:12;;;;;;;2.40;0.95;;;;;;;;;;5055316;28;20044;-76
2021/05/28 14:41:38;;;;;;;2.05;1.10;;;;;;;;;;5053703;28;20057;-76